createdAt,value
2023-01-25T00:01:53.030Z,82.13
2023-01-25T00:04:20.415Z,82.39
2023-01-25T00:06:47.312Z,81.92
2023-01-25T00:09:14.472Z,82.09
2023-01-25T00:11:41.357Z,81.93
2023-01-25T00:14:07.952Z,82.47
2023-01-25T00:16:34.328Z,82.32
2023-01-25T00:19:00.784Z,82.31
2023-01-25T00:21:27.489Z,82.20
2023-01-25T00:23:54.159Z,81.69
2023-01-25T00:26:20.688Z,82.00
2023-01-25T00:28:54.211Z,82.36
2023-01-25T00:31:27.179Z,82.63
2023-01-25T00:34:02.048Z,82.20
2023-01-25T00:36:38.327Z,82.60
2023-01-25T00:39:06.727Z,82.92
2023-01-25T00:41:33.063Z,82.64
2023-01-25T00:44:00.292Z,82.85
2023-01-25T00:46:27.694Z,83.37
2023-01-25T00:48:54.921Z,83.23
2023-01-25T00:51:22.082Z,83.72
2023-01-25T00:53:48.508Z,83.37
2023-01-25T00:56:15.044Z,83.17
2023-01-25T00:58:42.067Z,83.18
2023-01-25T01:01:08.813Z,83.16
2023-01-25T01:03:35.292Z,83.45
2023-01-25T01:06:04.767Z,83.56
2023-01-25T01:08:33.724Z,83.78
2023-01-25T01:11:05.358Z,83.97
2023-01-25T01:13:32.359Z,84.05
2023-01-25T01:16:02.681Z,84.15
2023-01-25T01:18:33.589Z,84.22
2023-01-25T01:20:59.961Z,83.68
2023-01-25T01:23:28.653Z,84.75
2023-01-25T01:25:55.015Z,84.42
2023-01-25T01:28:21.436Z,84.99
2023-01-25T01:30:47.794Z,84.56
2023-01-25T01:33:14.166Z,84.18
2023-01-25T01:35:40.562Z,84.49
2023-01-25T01:38:07.170Z,84.61
2023-01-25T01:40:33.600Z,84.09
2023-01-25T01:43:01.644Z,84.65
2023-01-25T01:45:43.603Z,85.06
2023-01-25T01:48:31.625Z,84.86
2023-01-25T01:51:02.892Z,84.97
2023-01-25T01:53:31.482Z,84.57
2023-01-25T01:56:04.573Z,84.45
2023-01-25T01:58:32.401Z,84.42
2023-01-25T02:00:58.844Z,84.56
2023-01-25T02:03:26.566Z,84.33
2023-01-25T02:06:04.744Z,84.77
2023-01-25T02:08:34.524Z,84.77
2023-01-25T02:11:01.685Z,84.17
2023-01-25T02:13:28.420Z,84.22
2023-01-25T02:15:56.526Z,84.88
2023-01-25T02:18:24.594Z,85.01
2023-01-25T02:20:53.385Z,85.12
2023-01-25T02:23:50.795Z,84.73
2023-01-25T02:26:19.465Z,84.70
2023-01-25T02:28:52.095Z,84.67
2023-01-25T02:31:18.579Z,84.61
2023-01-25T02:33:45.001Z,84.50
2023-01-25T02:36:11.326Z,84.40
2023-01-25T02:38:43.020Z,84.52
2023-01-25T02:41:18.071Z,84.81
2023-01-25T02:43:44.434Z,84.78
2023-01-25T02:46:17.804Z,84.84
2023-01-25T02:48:44.404Z,84.85
2023-01-25T02:51:10.762Z,85.37
2023-01-25T02:53:37.152Z,85.49
2023-01-25T02:56:04.155Z,85.36
2023-01-25T02:58:30.550Z,84.96
2023-01-25T03:00:57.954Z,85.18
2023-01-25T03:03:24.465Z,85.35
2023-01-25T03:05:50.800Z,85.09
2023-01-25T03:08:17.352Z,85.06
2023-01-25T03:10:43.758Z,85.23
2023-01-25T03:13:11.205Z,85.12
2023-01-25T03:15:37.671Z,85.34
2023-01-25T03:18:04.598Z,85.17
2023-01-25T03:20:31.039Z,85.23
2023-01-25T03:22:57.391Z,85.00
2023-01-25T03:25:23.749Z,85.71
2023-01-25T03:27:50.083Z,85.56
2023-01-25T03:30:16.488Z,85.24
2023-01-25T03:32:42.865Z,85.29
2023-01-25T03:35:09.689Z,85.41
2023-01-25T03:37:36.183Z,85.68
2023-01-25T03:40:03.120Z,85.52
2023-01-25T03:42:29.505Z,85.34
2023-01-25T03:44:55.844Z,85.29
2023-01-25T03:47:22.587Z,85.78
2023-01-25T03:49:48.970Z,85.71
2023-01-25T03:52:15.842Z,85.33
2023-01-25T03:54:42.238Z,86.01
2023-01-25T03:57:08.650Z,85.80
2023-01-25T03:59:35.035Z,84.92
2023-01-25T04:02:02.879Z,85.35
2023-01-25T04:04:29.333Z,85.33
2023-01-25T04:06:55.719Z,85.36
2023-01-25T04:09:22.146Z,85.33
2023-01-25T04:11:51.882Z,85.73
2023-01-25T04:14:25.518Z,85.62
2023-01-25T04:16:58.272Z,85.82
2023-01-25T04:19:24.660Z,85.62
2023-01-25T04:21:51.031Z,85.97
2023-01-25T04:24:17.600Z,86.14
2023-01-25T04:26:44.017Z,86.03
2023-01-25T04:29:10.640Z,86.15
2023-01-25T04:31:37.126Z,86.88
2023-01-25T04:34:03.586Z,86.09
2023-01-25T04:36:29.958Z,85.95
2023-01-25T04:38:56.300Z,86.00
2023-01-25T04:41:26.805Z,85.92
2023-01-25T04:43:53.182Z,86.38
2023-01-25T04:46:19.606Z,86.19
2023-01-25T04:48:46.046Z,86.54
2023-01-25T04:51:14.247Z,86.47
2023-01-25T04:53:40.653Z,86.49
2023-01-25T04:56:07.484Z,86.36
2023-01-25T04:58:33.898Z,86.59
2023-01-25T05:01:02.074Z,86.98
2023-01-25T05:03:28.953Z,87.02
2023-01-25T05:05:55.388Z,87.51
2023-01-25T05:08:21.733Z,87.31
2023-01-25T05:10:48.098Z,87.44
2023-01-25T05:13:14.537Z,87.47
2023-01-25T05:15:40.877Z,87.51
2023-01-25T05:18:07.280Z,87.50
2023-01-25T05:20:33.697Z,87.87
2023-01-25T05:23:00.147Z,88.03
2023-01-25T05:25:45.086Z,88.08
2023-01-25T05:28:11.460Z,88.24
2023-01-25T05:30:37.943Z,88.17
2023-01-25T05:33:04.338Z,88.66
2023-01-25T05:35:30.699Z,88.26
2023-01-25T05:38:00.271Z,88.47
2023-01-25T05:40:27.269Z,88.51
2023-01-25T05:42:58.437Z,88.68
2023-01-25T05:45:24.892Z,88.40
2023-01-25T05:47:55.118Z,89.06
2023-01-25T05:50:22.903Z,89.42
2023-01-25T05:52:49.367Z,89.22
2023-01-25T05:55:16.196Z,89.15
2023-01-25T05:57:43.249Z,89.10
2023-01-25T06:00:10.634Z,89.23
2023-01-25T06:02:37.489Z,89.38
2023-01-25T06:05:04.510Z,89.38
2023-01-25T06:07:36.209Z,88.98
2023-01-25T06:10:04.614Z,89.07
2023-01-25T06:12:31.401Z,89.52
2023-01-25T06:14:57.850Z,89.37
2023-01-25T06:17:24.286Z,89.43
2023-01-25T06:19:50.843Z,89.69
2023-01-25T06:22:17.211Z,89.55
2023-01-25T06:24:43.557Z,90.08
2023-01-25T06:27:10.915Z,89.64
2023-01-25T06:29:37.285Z,90.02
2023-01-25T06:32:03.941Z,89.65
2023-01-25T06:34:30.341Z,89.66
2023-01-25T06:36:56.656Z,90.12
2023-01-25T06:39:23.027Z,90.04
2023-01-25T06:41:49.393Z,90.66
2023-01-25T06:44:15.749Z,90.32
2023-01-25T06:46:42.113Z,90.36
2023-01-25T06:49:08.456Z,90.09
2023-01-25T06:51:34.851Z,89.84
2023-01-25T06:54:04.150Z,89.64
2023-01-25T06:56:30.627Z,89.41
2023-01-25T06:58:56.953Z,89.93
2023-01-25T07:01:27.481Z,89.65
2023-01-25T07:03:56.478Z,89.65
2023-01-25T07:06:23.758Z,89.76
2023-01-25T07:08:50.974Z,89.79
2023-01-25T07:11:19.164Z,89.92
2023-01-25T07:13:47.025Z,89.66
2023-01-25T07:16:16.310Z,90.15
2023-01-25T07:18:42.963Z,90.46
2023-01-25T07:21:14.452Z,89.53
2023-01-25T07:23:41.590Z,89.62
2023-01-25T07:26:19.872Z,88.59
2023-01-25T07:28:47.886Z,88.94
2023-01-25T07:31:15.348Z,89.02
2023-01-25T07:33:42.192Z,88.60
2023-01-25T07:36:10.572Z,88.67
2023-01-25T07:38:37.689Z,88.40
2023-01-25T07:41:04.506Z,87.76
2023-01-25T07:43:31.333Z,87.95
2023-01-25T07:46:03.145Z,88.08
2023-01-25T07:48:29.914Z,88.10
2023-01-25T07:51:22.891Z,88.45
2023-01-25T07:53:50.977Z,88.52
2023-01-25T07:56:18.617Z,88.24
2023-01-25T07:58:45.682Z,87.87
2023-01-25T08:01:16.893Z,87.98
2023-01-25T08:03:44.253Z,87.99
2023-01-25T08:06:11.509Z,87.89
2023-01-25T08:08:45.143Z,87.99
2023-01-25T08:11:16.550Z,87.97
2023-01-25T08:13:46.458Z,87.78
2023-01-25T08:16:14.085Z,87.91
2023-01-25T08:18:43.464Z,87.75
2023-01-25T08:21:10.211Z,87.73
2023-01-25T08:23:36.642Z,87.53
2023-01-25T08:26:04.549Z,87.54
2023-01-25T08:28:31.336Z,87.63
2023-01-25T08:31:13.637Z,87.24
2023-01-25T08:33:40.638Z,87.63
2023-01-25T08:36:09.847Z,87.48
2023-01-25T08:38:36.872Z,87.62
2023-01-25T08:41:22.046Z,87.59
2023-01-25T08:43:48.544Z,87.73
2023-01-25T08:46:16.671Z,88.02
2023-01-25T08:48:43.141Z,87.96
2023-01-25T08:51:12.500Z,88.18
2023-01-25T08:53:39.203Z,88.11
2023-01-25T08:56:07.689Z,88.05
2023-01-25T08:58:34.535Z,88.20
2023-01-25T09:01:03.414Z,87.50
2023-01-25T09:03:30.225Z,87.70
2023-01-25T09:05:56.587Z,88.48
2023-01-25T09:08:24.075Z,88.13
2023-01-25T09:10:50.581Z,88.17
2023-01-25T09:13:17.291Z,88.26
2023-01-25T09:15:44.380Z,88.27
2023-01-25T09:18:10.755Z,88.06
2023-01-25T09:20:39.943Z,88.63
2023-01-25T09:23:06.364Z,88.62
2023-01-25T09:25:32.783Z,88.48
2023-01-25T09:27:59.178Z,88.62
2023-01-25T09:30:37.280Z,89.06
2023-01-25T09:33:16.316Z,88.59
2023-01-25T09:35:48.072Z,88.62
2023-01-25T09:38:14.530Z,88.64
2023-01-25T09:40:50.080Z,88.48
2023-01-25T09:43:35.703Z,88.88
2023-01-25T09:46:09.223Z,88.71
2023-01-25T09:48:45.107Z,88.91
2023-01-25T09:51:33.242Z,88.66
2023-01-25T09:54:01.100Z,88.47
2023-01-25T09:56:33.879Z,88.80
2023-01-25T09:59:07.655Z,88.83
2023-01-25T10:01:50.226Z,88.59
2023-01-25T10:04:30.260Z,88.11
2023-01-25T10:07:04.450Z,88.48
2023-01-25T10:09:47.831Z,88.36
2023-01-25T10:12:16.335Z,88.27
2023-01-25T10:14:42.802Z,88.33
2023-01-25T10:17:18.119Z,88.50
2023-01-25T10:20:08.012Z,88.55
2023-01-25T10:22:41.072Z,88.35
2023-01-25T10:25:28.818Z,88.29
2023-01-25T10:28:38.518Z,88.13
2023-01-25T10:31:12.086Z,88.19
2023-01-25T10:33:43.190Z,87.58
2023-01-25T10:36:16.634Z,87.75
2023-01-25T10:38:46.742Z,87.81
2023-01-25T10:41:32.639Z,87.42
2023-01-25T10:44:18.995Z,87.45
2023-01-25T10:46:57.597Z,87.46
2023-01-25T10:49:29.970Z,87.01
2023-01-25T10:51:56.684Z,87.54
2023-01-25T10:54:23.804Z,87.24
2023-01-25T10:56:50.454Z,87.70
2023-01-25T10:59:25.645Z,87.52
2023-01-25T11:01:52.128Z,87.86
2023-01-25T11:04:29.998Z,87.32
2023-01-25T11:06:56.924Z,87.85
2023-01-25T11:09:29.398Z,87.83
2023-01-25T11:12:07.298Z,87.33
2023-01-25T11:14:34.235Z,87.74
2023-01-25T11:17:03.305Z,87.52
2023-01-25T11:19:38.390Z,86.89
2023-01-25T11:22:20.771Z,86.61
2023-01-25T11:24:47.634Z,87.01
2023-01-25T11:27:25.450Z,87.51
2023-01-25T11:30:09.658Z,86.99
2023-01-25T11:32:39.226Z,87.03
2023-01-25T11:35:13.789Z,87.28
2023-01-25T11:37:58.325Z,87.13
2023-01-25T11:40:30.913Z,87.38
2023-01-25T11:43:21.709Z,87.40
2023-01-25T11:45:56.270Z,87.14
2023-01-25T11:49:00.071Z,87.82
2023-01-25T11:51:29.729Z,87.83
2023-01-25T11:54:15.063Z,88.11
2023-01-25T11:57:07.737Z,88.25
2023-01-25T11:59:56.036Z,87.86
2023-01-25T12:02:52.968Z,87.57
2023-01-25T12:05:29.489Z,87.56
2023-01-25T12:08:07.860Z,87.61
2023-01-25T12:10:49.405Z,87.51
2023-01-25T12:13:22.790Z,87.40
2023-01-25T12:16:02.901Z,88.18
2023-01-25T12:19:07.655Z,87.74
2023-01-25T12:21:46.170Z,87.47
2023-01-25T12:24:37.586Z,87.14
2023-01-25T12:27:40.984Z,87.33
2023-01-25T12:30:23.886Z,87.60
2023-01-25T12:33:14.363Z,88.28
2023-01-25T12:36:20.308Z,87.85
2023-01-25T12:38:56.293Z,87.88
2023-01-25T12:41:40.049Z,87.79
2023-01-25T12:44:08.994Z,87.88
2023-01-25T12:46:45.516Z,87.67
2023-01-25T12:49:29.612Z,87.69
2023-01-25T12:52:00.622Z,87.91
2023-01-25T12:54:36.282Z,87.63
2023-01-25T12:57:09.880Z,87.09
2023-01-25T13:00:00.346Z,87.48
2023-01-25T13:02:54.579Z,87.32
2023-01-25T13:05:53.360Z,87.53
2023-01-25T13:08:35.758Z,87.70
2023-01-25T13:11:07.663Z,88.26
2023-01-25T13:13:34.677Z,88.18
2023-01-25T13:16:23.652Z,87.86
2023-01-25T13:18:50.342Z,87.81
2023-01-25T13:21:56.491Z,87.79
2023-01-25T13:24:25.829Z,87.69
2023-01-25T13:26:55.251Z,88.12
2023-01-25T13:29:38.446Z,88.18
2023-01-25T13:32:35.178Z,87.97
2023-01-25T13:35:02.397Z,87.73
2023-01-25T13:37:34.764Z,88.21
2023-01-25T13:40:07.774Z,88.46
2023-01-25T13:42:37.216Z,88.00
2023-01-25T13:45:18.840Z,88.02
2023-01-25T13:48:04.680Z,88.17
2023-01-25T13:50:34.606Z,87.42
2023-01-25T13:53:03.999Z,87.45
2023-01-25T13:55:39.945Z,87.96
2023-01-25T13:58:30.618Z,87.96
2023-01-25T14:01:02.056Z,88.11
2023-01-25T14:03:36.551Z,88.21
2023-01-25T14:06:04.318Z,87.81
2023-01-25T14:08:31.861Z,88.00
2023-01-25T14:10:58.744Z,88.01
2023-01-25T14:13:25.405Z,88.25
2023-01-25T14:15:57.987Z,88.21
2023-01-25T14:18:32.649Z,88.01
2023-01-25T14:21:10.496Z,88.19
2023-01-25T14:23:37.303Z,88.44
2023-01-25T14:26:04.239Z,88.92
2023-01-25T14:28:31.050Z,89.47
2023-01-25T14:31:01.249Z,88.85
2023-01-25T14:33:30.329Z,88.97
2023-01-25T14:36:24.472Z,89.19
2023-01-25T14:38:52.019Z,89.34
2023-01-25T14:41:25.812Z,89.26
2023-01-25T14:43:54.986Z,88.94
2023-01-25T14:46:35.404Z,88.92
2023-01-25T14:49:26.253Z,89.51
2023-01-25T14:52:13.006Z,89.11
2023-01-25T14:55:09.044Z,89.56
2023-01-25T14:57:37.626Z,88.86
2023-01-25T15:00:31.684Z,89.25
2023-01-25T15:03:00.620Z,89.35
2023-01-25T15:05:29.769Z,89.70
2023-01-25T15:07:58.952Z,89.44
2023-01-25T15:10:30.914Z,89.02
2023-01-25T15:13:12.424Z,88.98
2023-01-25T15:15:59.941Z,89.10
2023-01-25T15:18:42.781Z,89.24
2023-01-25T15:21:15.162Z,88.73
2023-01-25T15:23:43.243Z,88.69
2023-01-25T15:26:24.776Z,88.94
2023-01-25T15:28:53.355Z,88.69
2023-01-25T15:31:32.743Z,88.98
2023-01-25T15:34:01.360Z,88.76
2023-01-25T15:36:29.267Z,88.87
2023-01-25T15:38:55.754Z,89.14
2023-01-25T15:41:22.509Z,89.29
2023-01-25T15:43:49.542Z,89.03
2023-01-25T15:46:24.934Z,89.37
2023-01-25T15:48:51.495Z,89.49
2023-01-25T15:51:18.570Z,89.82
2023-01-25T15:53:44.944Z,89.89
2023-01-25T15:56:18.684Z,90.03
2023-01-25T15:58:49.685Z,89.85
2023-01-25T16:01:16.484Z,90.26
2023-01-25T16:03:42.870Z,90.41
2023-01-25T16:06:23.861Z,90.06
2023-01-25T16:08:50.314Z,90.24
2023-01-25T16:11:16.671Z,89.98
2023-01-25T16:13:43.017Z,89.47
2023-01-25T16:16:18.474Z,89.31
2023-01-25T16:18:45.168Z,89.32
2023-01-25T16:21:12.682Z,89.26
2023-01-25T16:23:39.855Z,89.12
2023-01-25T16:26:19.086Z,89.15
2023-01-25T16:28:45.458Z,89.28
2023-01-25T16:31:29.905Z,89.04
2023-01-25T16:33:58.342Z,88.97
2023-01-25T16:36:25.092Z,89.47
2023-01-25T16:38:51.522Z,89.48
2023-01-25T16:41:18.575Z,89.32
2023-01-25T16:43:47.146Z,89.64
2023-01-25T16:46:16.255Z,89.77
2023-01-25T16:48:43.290Z,89.89
2023-01-25T16:51:17.948Z,89.71
2023-01-25T16:53:45.553Z,89.89
2023-01-25T16:56:22.796Z,90.00
2023-01-25T16:58:50.403Z,90.06
2023-01-25T17:01:18.965Z,90.20
2023-01-25T17:03:45.866Z,90.25
2023-01-25T17:06:30.217Z,90.38
2023-01-25T17:09:00.340Z,90.24
2023-01-25T17:11:27.943Z,90.70
2023-01-25T17:13:58.158Z,90.67
2023-01-25T17:16:26.942Z,90.35
2023-01-25T17:19:43.078Z,90.49
2023-01-25T17:22:07.695Z,90.46
2023-01-25T17:24:35.972Z,90.57
2023-01-25T17:27:02.527Z,90.55
2023-01-25T17:29:31.901Z,90.33
2023-01-25T17:31:58.866Z,90.65
2023-01-25T17:34:25.313Z,90.35
2023-01-25T17:36:52.487Z,90.67
2023-01-25T17:39:20.339Z,91.25
2023-01-25T17:41:49.361Z,90.73
2023-01-25T17:44:20.826Z,90.86
2023-01-25T17:46:47.724Z,91.14
2023-01-25T17:49:16.773Z,91.11
2023-01-25T17:51:43.942Z,90.49
2023-01-25T17:54:11.804Z,90.50
2023-01-25T17:56:39.640Z,90.30
2023-01-25T17:59:08.894Z,90.36
2023-01-25T18:01:35.934Z,90.71
2023-01-25T18:04:02.429Z,90.51
2023-01-25T18:06:30.935Z,90.46
2023-01-25T18:09:01.077Z,90.34
2023-01-25T18:11:33.699Z,90.43
2023-01-25T18:14:02.429Z,90.56
2023-01-25T18:16:30.963Z,90.06
2023-01-25T18:18:59.990Z,90.04
2023-01-25T18:21:29.834Z,89.87
2023-01-25T18:24:01.568Z,89.68
2023-01-25T18:26:30.546Z,89.74
2023-01-25T18:29:25.854Z,90.26
2023-01-25T18:31:53.136Z,89.74
2023-01-25T18:34:19.557Z,89.69
2023-01-25T18:36:45.968Z,89.81
2023-01-25T18:39:12.326Z,90.02
2023-01-25T18:41:38.655Z,89.79
2023-01-25T18:44:05.545Z,89.58
2023-01-25T18:46:32.448Z,89.50
2023-01-25T18:48:58.878Z,89.99
2023-01-25T18:51:26.118Z,89.46
2023-01-25T18:53:52.544Z,89.57
2023-01-25T18:56:20.809Z,89.18
2023-01-25T18:58:47.710Z,89.14
2023-01-25T19:01:22.329Z,88.97
2023-01-25T19:03:50.099Z,89.01
2023-01-25T19:06:18.573Z,89.05
2023-01-25T19:08:49.728Z,88.98
2023-01-25T19:11:19.880Z,89.03
2023-01-25T19:13:46.362Z,88.69
2023-01-25T19:16:15.016Z,88.30
2023-01-25T19:18:46.809Z,88.30
2023-01-25T19:21:19.115Z,88.01
2023-01-25T19:23:45.977Z,88.52
2023-01-25T19:26:15.591Z,88.12
2023-01-25T19:28:42.658Z,88.40
2023-01-25T19:31:12.149Z,88.48
2023-01-25T19:33:39.131Z,88.71
2023-01-25T19:36:08.058Z,89.81
2023-01-25T19:38:38.767Z,89.81
2023-01-25T19:41:07.463Z,89.24
2023-01-25T19:43:34.565Z,89.15
2023-01-25T19:46:08.552Z,88.88
2023-01-25T19:48:35.785Z,89.28
2023-01-25T19:51:20.319Z,89.31
2023-01-25T19:53:52.519Z,89.28
2023-01-25T19:56:19.356Z,89.59
2023-01-25T19:58:47.545Z,89.53
2023-01-25T20:01:16.288Z,89.36
2023-01-25T20:03:43.327Z,89.14
2023-01-25T20:06:11.696Z,89.05
2023-01-25T20:08:40.739Z,89.20
2023-01-25T20:11:19.568Z,88.97
2023-01-25T20:13:46.782Z,89.29
2023-01-25T20:16:14.159Z,89.19
2023-01-25T20:18:40.659Z,89.63
2023-01-25T20:21:10.138Z,89.83
2023-01-25T20:23:39.894Z,89.38
2023-01-25T20:26:16.095Z,89.50
2023-01-25T20:28:44.345Z,89.47
2023-01-25T20:31:30.960Z,89.76
2023-01-25T20:33:58.825Z,89.52
2023-01-25T20:36:28.563Z,89.50
2023-01-25T20:38:55.516Z,89.98
2023-01-25T20:41:22.599Z,89.79
2023-01-25T20:43:57.320Z,89.79
2023-01-25T20:46:24.921Z,89.77
2023-01-25T20:48:53.368Z,90.08
2023-01-25T20:51:21.511Z,89.92
2023-01-25T20:53:49.450Z,90.17
2023-01-25T20:56:17.089Z,89.94
2023-01-25T20:58:50.068Z,89.94
2023-01-25T21:01:23.189Z,89.86
2023-01-25T21:03:50.212Z,90.23
2023-01-25T21:06:17.576Z,90.34
2023-01-25T21:08:44.194Z,90.28
2023-01-25T21:11:11.554Z,90.36
2023-01-25T21:13:37.966Z,89.78
2023-01-25T21:16:04.676Z,90.03
2023-01-25T21:18:36.118Z,89.96
2023-01-25T21:21:05.515Z,89.78
2023-01-25T21:23:34.099Z,89.45
2023-01-25T21:26:01.975Z,89.73
2023-01-25T21:28:29.285Z,89.38
2023-01-25T21:30:58.223Z,89.41
2023-01-25T21:33:25.046Z,89.60
2023-01-25T21:35:54.467Z,89.52
2023-01-25T21:38:21.300Z,89.55
2023-01-25T21:40:47.655Z,89.45
2023-01-25T21:43:14.063Z,89.61
2023-01-25T21:45:59.227Z,89.55
2023-01-25T21:48:44.055Z,89.24
2023-01-25T21:51:31.061Z,89.29
2023-01-25T21:53:58.648Z,89.36
2023-01-25T21:56:25.050Z,89.37
2023-01-25T21:58:51.419Z,89.45
2023-01-25T22:01:20.056Z,89.40
2023-01-25T22:03:50.684Z,89.52
2023-01-25T22:06:18.376Z,89.15
2023-01-25T22:08:45.646Z,89.26
2023-01-25T22:11:12.188Z,89.73
2023-01-25T22:13:39.180Z,89.75
2023-01-25T22:16:07.524Z,89.46
2023-01-25T22:18:36.916Z,89.66
2023-01-25T22:21:07.010Z,89.27
2023-01-25T22:23:35.471Z,89.72
2023-01-25T22:26:11.178Z,89.55
2023-01-25T22:28:53.890Z,89.75
2023-01-25T22:31:27.949Z,89.76
2023-01-25T22:33:55.645Z,89.09
2023-01-25T22:36:23.553Z,89.14
2023-01-25T22:38:50.892Z,89.21
2023-01-25T22:41:19.858Z,89.18
2023-01-25T22:43:46.477Z,89.01
2023-01-25T22:46:18.444Z,89.52
2023-01-25T22:48:46.195Z,89.37
2023-01-25T22:51:15.722Z,89.38
2023-01-25T22:53:42.638Z,89.33
2023-01-25T22:56:14.234Z,88.74
2023-01-25T22:58:42.678Z,88.55
2023-01-25T23:01:18.815Z,88.29
2023-01-25T23:03:45.783Z,88.11
2023-01-25T23:06:15.246Z,88.28
2023-01-25T23:08:42.271Z,88.55
2023-01-25T23:11:14.501Z,89.17
2023-01-25T23:13:41.764Z,89.05
2023-01-25T23:16:10.020Z,89.60
2023-01-25T23:18:51.716Z,89.38
2023-01-25T23:21:20.275Z,89.09
2023-01-25T23:23:46.967Z,88.54
2023-01-25T23:26:15.259Z,88.16
2023-01-25T23:28:42.360Z,87.72
2023-01-25T23:31:17.073Z,88.06
2023-01-25T23:33:48.820Z,87.78
2023-01-25T23:36:23.601Z,87.72
2023-01-25T23:38:50.766Z,88.01
2023-01-25T23:41:19.147Z,88.01
2023-01-25T23:43:45.603Z,88.28
2023-01-25T23:46:14.239Z,88.51
2023-01-25T23:48:44.926Z,88.47
2023-01-25T23:51:12.492Z,88.35
2023-01-25T23:53:39.786Z,88.75
2023-01-25T23:56:13.209Z,88.49
2023-01-25T23:58:40.136Z,88.18
